createdAt,value
2023-03-31T00:01:08.906Z,70.70
2023-03-31T00:03:39.011Z,70.60
2023-03-31T00:06:07.110Z,70.70
2023-03-31T00:08:37.926Z,70.60
2023-03-31T00:11:08.519Z,70.70
2023-03-31T00:13:41.589Z,70.60
2023-03-31T00:16:10.629Z,70.60
2023-03-31T00:18:40.913Z,70.50
2023-03-31T00:21:14.638Z,70.50
2023-03-31T00:23:42.533Z,70.40
2023-03-31T00:26:09.896Z,70.50
2023-03-31T00:28:37.273Z,70.50
2023-03-31T00:31:09.469Z,70.50
2023-03-31T00:33:36.814Z,70.60
2023-03-31T00:36:06.299Z,70.60
2023-03-31T00:38:36.705Z,70.50
2023-03-31T00:41:04.777Z,70.50
2023-03-31T00:43:40.131Z,70.50
2023-03-31T00:46:13.818Z,70.50
2023-03-31T00:48:58.593Z,70.50
2023-03-31T00:51:34.125Z,70.60
2023-03-31T00:54:06.272Z,70.70
2023-03-31T00:56:39.490Z,70.80
2023-03-31T00:59:13.286Z,70.60
2023-03-31T01:01:45.483Z,70.80
2023-03-31T01:04:14.955Z,70.80
2023-03-31T01:07:02.516Z,70.70
2023-03-31T01:09:35.038Z,70.60
2023-03-31T01:12:10.591Z,70.40
2023-03-31T01:14:38.018Z,70.30
2023-03-31T01:17:09.736Z,70.30
2023-03-31T01:19:49.773Z,70.20
2023-03-31T01:22:39.081Z,70.20
2023-03-31T01:25:12.682Z,70.10
2023-03-31T01:28:06.817Z,70.00
2023-03-31T01:30:46.166Z,70.10
2023-03-31T01:33:49.468Z,70.10
2023-03-31T01:36:48.382Z,70.00
2023-03-31T01:39:46.203Z,69.90
2023-03-31T01:42:31.892Z,69.90
2023-03-31T01:45:17.819Z,70.00
2023-03-31T01:47:54.624Z,70.10
2023-03-31T01:50:34.244Z,70.00
2023-03-31T01:53:24.903Z,69.80
2023-03-31T01:56:00.989Z,69.90
2023-03-31T01:58:47.777Z,69.90
2023-03-31T02:01:21.202Z,69.70
2023-03-31T02:04:00.785Z,69.60
2023-03-31T02:06:35.587Z,69.60
2023-03-31T02:09:08.918Z,69.60
2023-03-31T02:11:37.521Z,69.60
2023-03-31T02:14:11.303Z,69.60
2023-03-31T02:16:47.745Z,69.40
2023-03-31T02:19:21.097Z,69.40
2023-03-31T02:21:52.369Z,69.60
2023-03-31T02:24:23.128Z,69.70
2023-03-31T02:27:22.700Z,69.70
2023-03-31T02:29:50.379Z,69.70
2023-03-31T02:32:32.261Z,69.60
2023-03-31T02:35:01.098Z,69.80
2023-03-31T02:37:30.578Z,69.80
2023-03-31T02:40:01.548Z,69.70
2023-03-31T02:42:29.184Z,69.60
2023-03-31T02:45:06.175Z,69.50
2023-03-31T02:47:34.686Z,69.40
2023-03-31T02:50:04.351Z,69.50
2023-03-31T02:52:40.496Z,69.60
2023-03-31T02:55:30.757Z,69.70
2023-03-31T02:58:23.861Z,69.70
2023-03-31T03:00:51.158Z,69.60
2023-03-31T03:03:31.107Z,69.50
2023-03-31T03:06:53.925Z,69.70
2023-03-31T03:09:38.583Z,69.80
2023-03-31T03:12:24.915Z,69.50
2023-03-31T03:15:35.403Z,69.60
2023-03-31T03:18:07.559Z,69.60
2023-03-31T03:20:35.917Z,69.40
2023-03-31T03:23:03.217Z,69.50
2023-03-31T03:25:30.562Z,69.40
2023-03-31T03:27:57.844Z,69.50
2023-03-31T03:30:25.309Z,69.50
2023-03-31T03:32:54.629Z,69.60
2023-03-31T03:35:22.036Z,69.50
2023-03-31T03:37:51.447Z,69.50
2023-03-31T03:40:18.801Z,69.50
2023-03-31T03:42:48.334Z,69.50
2023-03-31T03:45:15.818Z,69.50
2023-03-31T03:47:45.479Z,69.50
2023-03-31T03:50:15.931Z,69.50
2023-03-31T03:52:46.958Z,69.50
2023-03-31T03:55:14.406Z,69.70
2023-03-31T03:57:41.735Z,69.60
2023-03-31T04:00:12.833Z,69.60
2023-03-31T04:02:40.674Z,70.00
2023-03-31T04:05:08.515Z,69.40
2023-03-31T04:07:35.821Z,69.40
2023-03-31T04:10:03.092Z,69.40
2023-03-31T04:12:30.391Z,69.60
2023-03-31T04:14:57.753Z,69.70
2023-03-31T04:17:34.046Z,69.70
2023-03-31T04:20:02.530Z,69.70
2023-03-31T04:22:35.001Z,69.40
2023-03-31T04:25:14.748Z,69.40
2023-03-31T04:27:54.741Z,69.40
2023-03-31T04:30:30.950Z,69.30
2023-03-31T04:33:01.222Z,69.30
2023-03-31T04:35:48.686Z,69.30
2023-03-31T04:38:27.317Z,69.20
2023-03-31T04:40:54.743Z,69.30
2023-03-31T04:43:24.292Z,69.40
2023-03-31T04:45:56.370Z,69.40
2023-03-31T04:48:26.217Z,69.60
2023-03-31T04:50:53.613Z,69.70
2023-03-31T04:53:20.936Z,69.70
2023-03-31T04:55:52.949Z,69.80
2023-03-31T04:58:20.398Z,69.80
2023-03-31T05:00:55.087Z,69.80
2023-03-31T05:03:24.917Z,69.80
2023-03-31T05:05:55.059Z,70.00
2023-03-31T05:08:25.202Z,70.10
2023-03-31T05:10:54.941Z,70.30
2023-03-31T05:13:22.410Z,70.30
2023-03-31T05:15:52.679Z,70.40
2023-03-31T05:18:20.077Z,70.40
2023-03-31T05:20:47.396Z,70.40
2023-03-31T05:23:17.199Z,70.60
2023-03-31T05:25:44.486Z,70.80
2023-03-31T05:28:14.565Z,70.80
2023-03-31T05:30:41.889Z,70.60
2023-03-31T05:33:09.206Z,70.70
2023-03-31T05:35:36.527Z,70.80
2023-03-31T05:38:04.417Z,70.80
2023-03-31T05:40:31.756Z,70.90
2023-03-31T05:42:59.150Z,71.10
2023-03-31T05:45:26.495Z,71.20
2023-03-31T05:47:53.857Z,71.20
2023-03-31T05:50:21.198Z,71.10
2023-03-31T05:52:48.511Z,71.10
2023-03-31T05:55:16.054Z,71.10
2023-03-31T05:57:43.294Z,71.10
2023-03-31T06:00:11.414Z,71.00
2023-03-31T06:02:38.870Z,70.90
2023-03-31T06:05:11.259Z,70.80
2023-03-31T06:07:38.627Z,70.90
2023-03-31T06:10:08.324Z,71.00
2023-03-31T06:12:37.977Z,70.90
2023-03-31T06:15:08.024Z,71.10
2023-03-31T06:17:37.924Z,71.10
2023-03-31T06:20:19.720Z,71.10
2023-03-31T06:22:51.751Z,71.10
2023-03-31T06:25:19.012Z,71.10
2023-03-31T06:27:46.286Z,71.10
2023-03-31T06:30:13.909Z,71.30
2023-03-31T06:32:41.296Z,71.50
2023-03-31T06:35:09.007Z,71.70
2023-03-31T06:37:38.694Z,71.80
2023-03-31T06:40:08.908Z,71.80
2023-03-31T06:42:39.026Z,71.60
2023-03-31T06:45:06.799Z,71.50
2023-03-31T06:47:38.194Z,71.40
2023-03-31T06:50:06.089Z,71.40
2023-03-31T06:52:33.350Z,71.40
2023-03-31T06:55:00.684Z,71.40
2023-03-31T06:57:29.454Z,71.30
2023-03-31T06:59:56.793Z,71.30
2023-03-31T07:02:24.185Z,71.30
2023-03-31T07:04:51.466Z,71.30
2023-03-31T07:07:18.767Z,71.20
2023-03-31T07:09:46.129Z,71.20
2023-03-31T07:12:13.433Z,71.20
2023-03-31T07:14:40.666Z,71.30
2023-03-31T07:17:10.676Z,71.20
2023-03-31T07:19:42.200Z,71.20
2023-03-31T07:22:09.545Z,71.10
2023-03-31T07:24:38.912Z,71.20
2023-03-31T07:27:08.571Z,71.00
2023-03-31T07:29:36.030Z,71.10
2023-03-31T07:32:03.441Z,71.00
2023-03-31T07:34:30.792Z,71.00
2023-03-31T07:36:58.290Z,71.00
2023-03-31T07:39:30.161Z,70.90
2023-03-31T07:41:57.468Z,71.00
2023-03-31T07:44:24.982Z,70.90
2023-03-31T07:46:52.421Z,71.00
2023-03-31T07:49:19.718Z,71.20
2023-03-31T07:51:49.452Z,71.30
2023-03-31T07:54:16.733Z,71.50
2023-03-31T07:56:46.677Z,71.50
2023-03-31T07:59:14.262Z,71.60
2023-03-31T08:01:41.636Z,71.70
2023-03-31T08:04:12.448Z,71.80
2023-03-31T08:06:42.758Z,71.80
2023-03-31T08:09:10.259Z,71.80
2023-03-31T08:11:37.566Z,71.80
2023-03-31T08:14:04.838Z,71.90
2023-03-31T08:16:34.369Z,71.80
2023-03-31T08:19:02.093Z,71.80
2023-03-31T08:21:30.584Z,71.90
2023-03-31T08:23:58.165Z,71.90
2023-03-31T08:26:26.124Z,71.90
2023-03-31T08:28:53.890Z,71.90
2023-03-31T08:31:25.978Z,71.90
2023-03-31T08:33:57.373Z,71.70
2023-03-31T08:36:26.068Z,71.60
2023-03-31T08:38:54.270Z,71.70
2023-03-31T08:41:24.934Z,71.70
2023-03-31T08:43:56.882Z,71.70
2023-03-31T08:46:28.025Z,71.70
2023-03-31T08:48:58.819Z,71.80
2023-03-31T08:51:28.987Z,71.80
2023-03-31T08:54:04.911Z,71.70
2023-03-31T08:56:40.195Z,71.70
2023-03-31T08:59:17.341Z,72.00
2023-03-31T09:01:55.984Z,71.60
2023-03-31T09:04:33.524Z,71.60
2023-03-31T09:07:06.634Z,71.70
2023-03-31T09:10:01.755Z,71.60
2023-03-31T09:12:44.204Z,71.70
2023-03-31T09:15:17.884Z,71.80
2023-03-31T09:17:48.035Z,71.70
2023-03-31T09:20:38.992Z,71.60
2023-03-31T09:23:21.116Z,71.70
2023-03-31T09:25:48.962Z,71.70
2023-03-31T09:28:35.594Z,71.80
2023-03-31T09:31:12.792Z,72.10
2023-03-31T09:33:45.670Z,72.50
2023-03-31T09:36:19.015Z,72.30
2023-03-31T09:38:47.189Z,72.70
2023-03-31T09:41:16.703Z,72.90
2023-03-31T09:43:47.162Z,73.00
2023-03-31T09:46:17.326Z,73.60
2023-03-31T09:48:54.823Z,73.10
2023-03-31T09:51:32.645Z,72.90
2023-03-31T09:54:16.176Z,72.90
2023-03-31T09:56:43.440Z,73.00
2023-03-31T09:59:19.944Z,72.80
2023-03-31T10:01:53.443Z,73.00
2023-03-31T10:04:28.026Z,73.10
2023-03-31T10:06:56.415Z,73.10
2023-03-31T10:09:30.351Z,73.10
2023-03-31T10:12:00.993Z,73.20
2023-03-31T10:14:34.119Z,73.20
2023-03-31T10:17:07.724Z,73.20
2023-03-31T10:19:37.960Z,73.40
2023-03-31T10:22:15.495Z,73.40
2023-03-31T10:24:45.580Z,73.70
2023-03-31T10:27:22.062Z,73.50
2023-03-31T10:29:54.615Z,73.80
2023-03-31T10:32:24.931Z,74.20
2023-03-31T10:34:52.573Z,74.00
2023-03-31T10:37:23.777Z,73.60
2023-03-31T10:40:13.475Z,72.60
2023-03-31T10:42:46.642Z,71.90
2023-03-31T10:45:47.190Z,71.20
2023-03-31T10:48:28.211Z,71.30
2023-03-31T10:51:12.734Z,70.90
2023-03-31T10:53:51.961Z,71.00
2023-03-31T10:56:42.251Z,71.70
2023-03-31T10:59:29.714Z,72.20
2023-03-31T11:02:21.443Z,72.00
2023-03-31T11:04:54.377Z,72.00
2023-03-31T11:07:43.210Z,71.90
2023-03-31T11:10:48.771Z,71.90
2023-03-31T11:13:36.663Z,71.70
2023-03-31T11:16:16.275Z,71.80
2023-03-31T11:19:14.220Z,72.20
2023-03-31T11:21:53.161Z,72.50
2023-03-31T11:24:44.875Z,71.60
2023-03-31T11:27:35.473Z,71.30
2023-03-31T11:30:18.232Z,71.20
2023-03-31T11:33:14.652Z,71.00
2023-03-31T11:35:54.498Z,70.50
2023-03-31T11:38:34.653Z,69.60
2023-03-31T11:41:25.037Z,69.80
2023-03-31T11:43:56.690Z,69.30
2023-03-31T11:46:31.607Z,68.40
2023-03-31T11:49:10.911Z,67.50
2023-03-31T11:52:01.251Z,67.40
2023-03-31T11:54:46.475Z,66.80
2023-03-31T11:57:27.992Z,66.00
2023-03-31T12:00:15.654Z,65.70
2023-03-31T12:03:21.178Z,65.40
2023-03-31T12:05:57.380Z,65.30
2023-03-31T12:08:39.155Z,64.40
2023-03-31T12:11:27.763Z,64.60
2023-03-31T12:14:28.517Z,65.80
2023-03-31T12:17:08.921Z,64.50
2023-03-31T12:20:10.789Z,64.20
2023-03-31T12:22:41.940Z,64.40
2023-03-31T12:25:15.001Z,65.30
2023-03-31T12:27:44.902Z,63.80
2023-03-31T12:30:21.153Z,63.90
2023-03-31T12:32:56.366Z,63.70
2023-03-31T12:35:39.574Z,63.50
2023-03-31T12:38:32.623Z,63.40
2023-03-31T12:41:15.045Z,63.50
2023-03-31T12:43:55.169Z,63.90
2023-03-31T12:46:31.451Z,63.80
2023-03-31T12:49:15.869Z,63.70
2023-03-31T12:51:43.300Z,63.40
2023-03-31T12:54:43.219Z,64.00
2023-03-31T12:57:10.531Z,64.60
2023-03-31T12:59:41.443Z,65.00
2023-03-31T13:02:18.725Z,64.00
2023-03-31T13:04:50.229Z,63.30
2023-03-31T13:07:28.162Z,62.40
2023-03-31T13:10:16.828Z,62.00
2023-03-31T13:13:05.484Z,61.70
2023-03-31T13:15:33.312Z,61.40
2023-03-31T13:18:05.981Z,62.10
2023-03-31T13:20:38.814Z,61.70
2023-03-31T13:23:11.910Z,62.10
2023-03-31T13:25:45.935Z,62.40
2023-03-31T13:28:22.197Z,62.60
2023-03-31T13:31:04.424Z,64.40
2023-03-31T13:34:04.415Z,65.80
2023-03-31T13:36:34.531Z,65.90
2023-03-31T13:39:26.096Z,66.00
2023-03-31T13:42:12.288Z,65.40
2023-03-31T13:44:55.592Z,65.20
2023-03-31T13:47:54.107Z,65.70
2023-03-31T13:50:49.326Z,65.60
2023-03-31T13:53:39.488Z,66.20
2023-03-31T13:56:34.956Z,66.50
2023-03-31T13:59:36.514Z,66.70
2023-03-31T14:02:34.466Z,67.10
2023-03-31T14:05:26.090Z,67.20
2023-03-31T14:08:04.056Z,67.40
2023-03-31T14:10:34.980Z,67.40
2023-03-31T14:13:11.018Z,67.90
2023-03-31T14:15:42.647Z,68.20
2023-03-31T14:18:12.577Z,68.10
2023-03-31T14:21:21.207Z,67.80
2023-03-31T14:24:08.508Z,68.00
2023-03-31T14:26:54.856Z,67.80
2023-03-31T14:29:55.155Z,67.90
2023-03-31T14:32:32.107Z,68.00
2023-03-31T14:35:23.730Z,68.00
2023-03-31T14:37:51.235Z,68.00
2023-03-31T14:40:18.921Z,67.50
2023-03-31T14:42:50.063Z,67.50
2023-03-31T14:45:25.581Z,67.60
2023-03-31T14:48:09.437Z,67.20
2023-03-31T14:50:36.749Z,66.80
2023-03-31T14:53:14.750Z,66.90
2023-03-31T14:55:58.188Z,66.50
2023-03-31T14:58:38.456Z,66.40
2023-03-31T15:01:08.514Z,66.50
2023-03-31T15:03:41.673Z,66.20
2023-03-31T15:06:10.022Z,66.00
2023-03-31T15:08:38.734Z,66.00
2023-03-31T15:11:13.191Z,66.30
2023-03-31T15:14:00.677Z,65.90
2023-03-31T15:16:36.199Z,66.00
2023-03-31T15:19:16.434Z,66.40
2023-03-31T15:21:45.515Z,66.00
2023-03-31T15:24:14.540Z,66.00
2023-03-31T15:27:03.926Z,66.00
2023-03-31T15:30:17.209Z,65.50
2023-03-31T15:32:45.223Z,65.80
2023-03-31T15:35:31.934Z,65.40
2023-03-31T15:38:01.232Z,65.10
2023-03-31T15:40:32.549Z,64.90
2023-03-31T15:43:24.261Z,65.10
2023-03-31T15:45:56.091Z,65.10
2023-03-31T15:48:48.518Z,65.50
2023-03-31T15:51:30.170Z,64.50
2023-03-31T15:53:57.478Z,64.10
2023-03-31T15:56:33.497Z,64.30
2023-03-31T15:59:05.245Z,64.40
2023-03-31T16:01:38.851Z,64.00
2023-03-31T16:04:09.895Z,64.30
2023-03-31T16:07:01.066Z,64.50
2023-03-31T16:09:49.769Z,64.00
2023-03-31T16:12:28.708Z,63.80
2023-03-31T16:15:14.150Z,63.60
2023-03-31T16:18:07.073Z,63.60
2023-03-31T16:20:43.049Z,63.60
2023-03-31T16:23:19.843Z,63.30
2023-03-31T16:25:47.748Z,63.60
2023-03-31T16:28:21.937Z,63.20
2023-03-31T16:30:50.610Z,63.40
2023-03-31T16:33:25.880Z,63.30
2023-03-31T16:35:56.389Z,63.20
2023-03-31T16:38:29.662Z,63.10
2023-03-31T16:40:58.480Z,63.10
2023-03-31T16:43:33.878Z,63.10
2023-03-31T16:46:05.863Z,63.00
2023-03-31T16:48:34.698Z,62.80
2023-03-31T16:51:05.141Z,62.90
2023-03-31T16:53:34.773Z,62.70
2023-03-31T16:56:07.546Z,62.40
2023-03-31T16:58:36.289Z,62.40
2023-03-31T17:01:06.338Z,62.40
2023-03-31T17:03:38.446Z,62.70
2023-03-31T17:06:09.260Z,62.60
2023-03-31T17:08:38.076Z,62.60
2023-03-31T17:11:16.014Z,63.20
2023-03-31T17:13:44.776Z,63.40
2023-03-31T17:18:42.618Z,63.60
2023-03-31T17:21:15.392Z,63.20
2023-03-31T17:23:46.238Z,63.20
2023-03-31T17:26:16.366Z,63.40
2023-03-31T17:28:46.973Z,63.50
2023-03-31T17:31:17.119Z,63.10
2023-03-31T17:33:47.514Z,62.90
2023-03-31T17:36:15.716Z,62.70
2023-03-31T17:38:45.648Z,62.20
2023-03-31T17:41:13.825Z,62.20
2023-03-31T17:43:45.650Z,62.20
2023-03-31T17:46:13.761Z,62.20
2023-03-31T17:48:42.261Z,62.50
2023-03-31T17:51:19.655Z,62.70
2023-03-31T17:53:50.181Z,62.30
2023-03-31T17:56:18.047Z,62.50
2023-03-31T17:58:48.036Z,62.70
2023-03-31T18:01:15.603Z,62.50
2023-03-31T18:03:45.070Z,62.60
2023-03-31T18:06:14.298Z,62.50
2023-03-31T18:08:44.681Z,62.50
2023-03-31T18:11:13.361Z,62.70
2023-03-31T18:13:40.803Z,62.90
2023-03-31T18:16:09.863Z,62.70
2023-03-31T18:18:40.257Z,62.90
2023-03-31T18:21:14.235Z,62.80
2023-03-31T18:23:41.748Z,62.30
2023-03-31T18:26:12.996Z,62.50
2023-03-31T18:28:43.039Z,62.20
2023-03-31T18:31:15.542Z,62.30
2023-03-31T18:33:43.359Z,62.20
2023-03-31T18:36:22.138Z,62.30
2023-03-31T18:38:50.646Z,62.50
2023-03-31T18:41:19.283Z,62.50
2023-03-31T18:43:52.216Z,62.50
2023-03-31T18:46:20.104Z,62.20
2023-03-31T18:48:47.399Z,62.30
2023-03-31T18:51:15.445Z,62.00
2023-03-31T18:53:42.895Z,62.20
2023-03-31T18:56:10.336Z,61.80
2023-03-31T18:58:37.639Z,61.50
2023-03-31T19:01:07.423Z,61.50
2023-03-31T19:03:34.752Z,61.50
2023-03-31T19:06:10.453Z,61.70
2023-03-31T19:08:39.182Z,61.70
2023-03-31T19:11:14.731Z,61.30
2023-03-31T19:13:43.102Z,61.50
2023-03-31T19:16:13.617Z,61.40
2023-03-31T19:18:42.239Z,61.50
2023-03-31T19:21:10.973Z,61.50
2023-03-31T19:23:40.753Z,62.00
2023-03-31T19:26:09.064Z,61.20
2023-03-31T19:28:36.340Z,61.10
2023-03-31T19:31:04.839Z,60.80
2023-03-31T19:33:32.269Z,61.20
2023-03-31T19:35:59.536Z,61.60
2023-03-31T19:38:31.836Z,63.40
2023-03-31T19:41:00.040Z,66.00
2023-03-31T19:43:29.391Z,67.30
2023-03-31T19:45:58.326Z,67.60
2023-03-31T19:48:30.221Z,68.00
2023-03-31T19:51:02.647Z,68.10
2023-03-31T19:53:31.319Z,68.70
2023-03-31T19:56:01.767Z,69.00
2023-03-31T19:58:35.236Z,69.30
2023-03-31T20:01:05.120Z,69.20
2023-03-31T20:03:33.446Z,69.20
2023-03-31T20:06:11.348Z,69.40
2023-03-31T20:08:41.610Z,69.70
2023-03-31T20:11:12.594Z,69.70
2023-03-31T20:13:42.028Z,70.10
2023-03-31T20:16:12.668Z,69.90
2023-03-31T20:18:40.793Z,70.00
2023-03-31T20:21:16.681Z,69.90
2023-03-31T20:23:45.544Z,70.00
2023-03-31T20:26:15.709Z,69.70
2023-03-31T20:28:43.164Z,69.70
2023-03-31T20:31:22.254Z,69.60
2023-03-31T20:33:51.178Z,69.40
2023-03-31T20:36:21.100Z,69.70
2023-03-31T20:38:53.185Z,69.60
2023-03-31T20:41:23.874Z,69.70
2023-03-31T20:43:53.781Z,69.60
2023-03-31T20:46:22.343Z,69.60
2023-03-31T20:48:55.951Z,69.40
2023-03-31T20:51:26.032Z,69.40
2023-03-31T20:53:54.903Z,69.00
2023-03-31T20:56:32.460Z,68.90
2023-03-31T20:59:00.656Z,68.60
2023-03-31T21:01:32.587Z,68.00
2023-03-31T21:04:01.698Z,68.30
2023-03-31T21:06:36.471Z,67.90
2023-03-31T21:09:05.382Z,67.70
2023-03-31T21:11:33.054Z,67.30
2023-03-31T21:14:03.337Z,67.10
2023-03-31T21:16:30.601Z,66.70
2023-03-31T21:19:00.937Z,66.60
2023-03-31T21:21:30.642Z,66.60
2023-03-31T21:23:58.029Z,66.50
2023-03-31T21:26:25.873Z,66.10
2023-03-31T21:28:54.504Z,66.00
2023-03-31T21:31:24.400Z,65.60
2023-03-31T21:33:53.399Z,65.20
2023-03-31T21:36:22.686Z,64.90
2023-03-31T21:38:52.427Z,64.90
2023-03-31T21:41:23.111Z,64.80
2023-03-31T21:43:55.618Z,64.20
2023-03-31T21:46:28.688Z,63.80
2023-03-31T21:48:57.466Z,63.70
2023-03-31T21:51:25.787Z,63.90
2023-03-31T21:53:55.439Z,63.80
2023-03-31T21:56:24.416Z,63.90
2023-03-31T21:58:51.886Z,63.70
2023-03-31T22:01:22.604Z,63.40
2023-03-31T22:03:51.817Z,63.60
2023-03-31T22:06:22.447Z,63.40
2023-03-31T22:08:49.868Z,63.20
2023-03-31T22:11:22.906Z,63.20
2023-03-31T22:13:50.510Z,63.20
2023-03-31T22:16:22.107Z,63.40
2023-03-31T22:18:50.415Z,62.90
2023-03-31T22:21:22.729Z,63.40
2023-03-31T22:24:01.886Z,63.00
2023-03-31T22:26:31.935Z,62.40
2023-03-31T22:28:59.204Z,62.60
2023-03-31T22:31:27.008Z,62.60
2023-03-31T22:33:56.641Z,62.60
2023-03-31T22:36:23.940Z,62.50
2023-03-31T22:38:53.463Z,62.50
2023-03-31T22:41:20.734Z,62.50
2023-03-31T22:43:48.016Z,62.20
2023-03-31T22:46:15.981Z,62.20
2023-03-31T22:48:46.506Z,62.10
2023-03-31T22:51:16.248Z,62.00
2023-03-31T22:53:43.509Z,61.60
2023-03-31T22:56:15.615Z,61.40
2023-03-31T22:58:45.248Z,61.30
2023-03-31T23:01:16.763Z,61.10
2023-03-31T23:03:48.448Z,60.90
2023-03-31T23:06:16.393Z,60.80
2023-03-31T23:08:45.363Z,61.60
2023-03-31T23:11:18.851Z,60.50
2023-03-31T23:13:46.851Z,60.30
2023-03-31T23:16:21.286Z,60.50
2023-03-31T23:18:49.982Z,60.30
2023-03-31T23:21:21.693Z,60.40
2023-03-31T23:23:52.476Z,60.30
2023-03-31T23:26:21.054Z,60.00
2023-03-31T23:28:49.674Z,60.30
2023-03-31T23:31:21.322Z,60.30
2023-03-31T23:33:48.518Z,59.90
2023-03-31T23:36:22.584Z,60.90
2023-03-31T23:38:51.783Z,60.00
2023-03-31T23:41:20.226Z,60.20
2023-03-31T23:43:47.480Z,60.10
2023-03-31T23:46:14.832Z,60.00
2023-03-31T23:48:42.525Z,60.40
2023-03-31T23:51:10.866Z,60.10
2023-03-31T23:53:40.486Z,60.00
2023-03-31T23:56:11.087Z,59.70
2023-03-31T23:58:42.953Z,59.80
